Stephenson, Virginia
Current Conditions -  °F | °C
As of 5:55 PM on Tuesday 27 Jan 2015 (Local Time) from KOKV Reporting Station
Overcast Overcast  
Wind Chill: 19°   Ceiling: 6000
Heat Index: 30°   Visibility: 10mi
Dew Point: 18°   Wind: 16mph
Humidity: 60%   Direction: 310°NW
Pressure: 29.9"   Gusts: 25mph
Location:  39.22°N, 78.09°W
Report Text: KOKV 272255Z AUTO 31014G22KT 10SM SCT027 OVC060 M01/M08 A2990 RMK AO2
Loading
Personal Weather Stations






























Interactive Weather Map New forecast layout! Learn more

10-Day Weather Forecast

Advertisements
Track Severe Weather on mobile